Time;durP1;ratioP1;P1;durP2;ratioP2;P2;SDS_P1;SDS_P2;PMS_P1;PMS_P2;Temp;Humidity;BMP_temperature;BMP_pressure;BME280_temperature;BME280_humidity;BME280_pressure;Samples;Min_cycle;Max_cycle;Signal;HPM_P1;HPM_P2
2022/01/17 00:02:03;;;;;;;;;;;51.90;2227.20;;;;;;4890129;29;20028;-77
2022/01/17 00:04:29;;;;;;;135.38;60.70;;;52.00;2227.20;;;;;;4903985;29;19935;-77
2022/01/17 00:06:55;;;;;;;;;;;52.00;2227.20;;;;;;4905768;29;20016;-75
2022/01/17 00:09:22;;;;;;;103.90;50.17;;;52.00;2227.20;;;;;;4906816;29;20426;-76
2022/01/17 00:11:50;;;;;;;103.28;51.10;;;51.90;2227.20;;;;;;4903666;29;20064;-75
2022/01/17 00:14:21;;;;;;;98.20;49.00;;;51.80;2227.20;;;;;;4905442;29;20051;-76
2022/01/17 00:16:53;;;;;;;93.47;45.80;;;51.80;2227.20;;;;;;4903615;29;20120;-75
2022/01/17 00:21:48;;;;;;;93.03;44.78;;;51.60;2227.20;;;;;;4910526;29;20027;-76
2022/01/17 00:24:14;;;;;;;;;;;51.60;2227.20;;;;;;4892858;29;20032;-77
2022/01/17 00:26:39;;;;;;;97.78;45.60;;;51.50;2227.20;;;;;;4908969;29;19911;-75
2022/01/17 00:29:05;;;;;;;;;;;51.30;2227.20;;;;;;4909939;29;20032;-77
2022/01/17 00:31:31;;;;;;;102.32;47.55;;;51.30;2227.20;;;;;;4909823;29;19921;-76
2022/01/17 00:33:57;;;;;;;;;;;51.30;2227.20;;;;;;4908765;29;20040;-77
2022/01/17 00:36:23;;;;;;;96.32;43.60;;;26.50;2201.60;;;;;;4908131;29;19914;-76
2022/01/17 00:38:49;;;;;;;88.20;43.03;;;26.50;2201.60;;;;;;4908190;29;20045;-76
2022/01/17 00:41:14;;;;;;;;;;;51.20;2227.20;;;;;;4908703;29;20043;-78
2022/01/17 00:43:40;;;;;;;94.18;44.85;;;51.30;2227.20;;;;;;4909299;29;19911;-78
2022/01/17 00:46:06;;;;;;;;;;;26.50;2201.60;;;;;;4908899;29;20028;-77
2022/01/17 00:48:31;;;;;;;83.75;40.78;;;51.30;2227.20;;;;;;4890086;29;19907;-76
2022/01/17 00:50:57;;;;;;;;;;;51.40;2227.20;;;;;;4909009;29;20020;-77
2022/01/17 00:53:23;;;;;;;78.97;37.17;;;51.30;2227.20;;;;;;4908246;29;19922;-77
2022/01/17 00:55:48;;;;;;;;;;;51.20;2227.20;;;;;;4907773;29;20103;-77
2022/01/17 00:58:14;;;;;;;74.93;36.33;;;26.50;2201.60;;;;;;4908710;29;19907;-77
2022/01/17 01:00:41;;;;;;;;;;;51.20;2227.20;;;;;;4908707;29;20480;-76
2022/01/17 01:03:07;;;;;;;59.90;32.25;;;51.20;2227.20;;;;;;4903079;29;19907;-78
2022/01/17 01:05:33;;;;;;;;;;;26.50;2201.60;;;;;;4900438;29;20032;-76
2022/01/17 01:07:59;;;;;;;74.25;32.72;;;26.40;2201.60;;;;;;4883228;29;19912;-75
2022/01/17 01:10:24;;;;;;;;;;;26.40;2201.60;;;;;;4900927;29;20029;-78
2022/01/17 01:12:51;;;;;;;73.55;32.92;;;26.30;2201.60;;;;;;4882872;29;19963;-75
2022/01/17 01:15:34;;;;;;;70.00;35.05;;;26.20;2201.60;;;;;;4882964;29;20037;-75
2022/01/17 01:18:12;;;;;;;69.78;37.40;;;26.30;2201.60;;;;;;4898170;29;20032;-75
2022/01/17 01:28:44;;;;;;;76.47;34.20;;;26.00;2201.60;;;;;;4899156;29;20043;-78
2022/01/17 01:31:17;;;;;;;;;;;25.80;2201.60;;;;;;4883136;29;20037;-75
2022/01/17 01:33:51;;;;;;;81.10;36.25;;;26.00;2201.60;;;;;;4900003;29;20419;-79
2022/01/17 01:36:24;;;;;;;76.43;33.95;;;25.90;2201.60;;;;;;4898119;29;20032;-77
2022/01/17 01:38:50;;;;;;;78.78;37.85;;;25.80;2201.60;;;;;;4899372;29;20053;-75
2022/01/17 01:41:15;;;;;;;;;;;25.90;2201.60;;;;;;4883072;29;20025;-79
2022/01/17 01:43:41;;;;;;;79.65;36.28;;;25.70;2201.60;;;;;;4882764;29;19907;-78
2022/01/17 01:46:08;;;;;;;;;;;25.70;2201.60;;;;;;4899608;29;20108;-78
2022/01/17 01:48:35;;;;;;;73.47;33.90;;;26.00;2201.60;;;;;;4882215;29;19914;-77
2022/01/17 01:51:02;;;;;;;87.70;39.05;;;26.00;2201.60;;;;;;4899376;29;20388;-77
2022/01/17 01:53:28;;;;;;;78.80;35.72;;;25.90;2201.60;;;;;;4899050;29;20043;-77
2022/01/17 01:55:55;;;;;;;;;;;25.80;2201.60;;;;;;4898595;29;20110;-76
2022/01/17 01:58:21;;;;;;;;;;;25.80;2201.60;;;;;;4882410;29;19907;-77
2022/01/17 02:00:47;;;;;;;58.28;26.15;;;25.70;2201.60;;;;;;4882218;29;20390;-77
2022/01/17 02:03:13;;;;;;;76.55;33.50;;;25.60;2201.60;;;;;;4881930;29;20112;-75
2022/01/17 02:05:40;;;;;;;;;;;0.90;2201.60;;;;;;4899805;29;20066;-76
2022/01/17 02:08:08;;;;;;;89.90;34.20;;;0.90;2201.60;;;;;;4881891;29;19934;-77
2022/01/17 02:10:34;;;;;;;77.35;35.25;;;25.70;2201.60;;;;;;4882266;29;20100;-78
2022/01/17 02:12:59;;;;;;;;;;;25.70;2201.60;;;;;;4882055;29;20040;-75
2022/01/17 02:15:25;;;;;;;79.28;33.88;;;25.60;2201.60;;;;;;4898738;29;20348;-75
2022/01/17 02:17:55;;;;;;;;;;;0.90;2201.60;;;;;;4899155;29;20032;-76
2022/01/17 02:20:43;;;;;;;85.68;33.40;;;0.80;2201.60;;;;;;4881348;29;20010;-77
2022/01/17 02:23:09;;;;;;;82.38;32.20;;;0.80;2201.60;;;;;;4883761;29;20037;-75
2022/01/17 02:25:36;;;;;;;60.88;31.42;;;0.80;2201.60;;;;;;4884628;29;20029;-77
2022/01/17 02:28:02;;;;;;;68.28;31.48;;;0.80;2201.60;;;;;;4882330;29;20028;-75
2022/01/17 02:30:31;;;;;;;76.00;35.00;;;0.70;2201.60;;;;;;4897419;29;20029;-76
2022/01/17 02:32:58;;;;;;;74.20;33.67;;;0.80;2201.60;;;;;;4896905;29;20040;-79
2022/01/17 02:35:24;;;;;;;69.53;33.63;;;0.80;2201.60;;;;;;4898221;29;20041;-77
2022/01/17 02:37:50;;;;;;;;;;;0.90;2201.60;;;;;;4898302;29;20100;-78
2022/01/17 02:40:18;;;;;;;63.75;26.15;;;0.80;2201.60;;;;;;4897615;29;19941;-79
2022/01/17 02:42:48;;;;;;;77.70;35.55;;;0.80;2201.60;;;;;;4897912;29;20028;-76
2022/01/17 02:48:09;;;;;;;70.68;33.53;;;0.70;2201.60;;;;;;4898450;29;20050;-79
2022/01/17 02:50:35;;;;;;;73.32;33.33;;;0.70;2201.60;;;;;;4897760;29;20033;-78
2022/01/17 02:53:04;;;;;;;77.20;34.88;;;0.70;2201.60;;;;;;4881349;29;20404;-79
2022/01/17 02:55:31;;;;;;;82.78;35.78;;;0.80;2201.60;;;;;;4896687;29;20033;-75
2022/01/17 02:57:57;;;;;;;;;;;0.80;2201.60;;;;;;4881424;29;20043;-78
2022/01/17 03:00:23;;;;;;;54.58;26.17;;;0.80;2201.60;;;;;;4896784;29;19907;-78
2022/01/17 03:02:49;;;;;;;;;;;0.70;2201.60;;;;;;4880870;29;20037;-78
2022/01/17 03:05:17;;;;;;;62.33;29.08;;;0.70;2201.60;;;;;;4881054;29;19932;-76
2022/01/17 03:07:44;;;;;;;78.88;34.97;;;0.70;2201.60;;;;;;4897537;29;20060;-77
2022/01/17 03:10:19;;;;;;;77.25;34.72;;;0.70;2201.60;;;;;;4881004;29;20037;-77
2022/01/17 03:12:45;;;;;;;82.07;34.53;;;0.70;2201.60;;;;;;4880700;29;20485;-75
2022/01/17 03:15:13;;;;;;;80.10;36.55;;;0.90;2201.60;;;;;;4880792;29;20036;-74
2022/01/17 03:17:40;;;;;;;75.78;34.78;;;0.80;2201.60;;;;;;4880768;29;20033;-76
2022/01/17 03:20:06;;;;;;;80.97;36.17;;;0.90;2201.60;;;;;;4897358;29;20028;-75
2022/01/17 03:22:32;;;;;;;84.13;39.05;;;0.90;2201.60;;;;;;4896507;29;20037;-75
2022/01/17 03:24:58;;;;;;;80.82;36.22;;;0.90;2201.60;;;;;;4897296;29;20069;-78
2022/01/17 03:27:24;;;;;;;;;;;25.70;2201.60;;;;;;4881099;29;20041;-77
2022/01/17 03:29:50;;;;;;;74.35;33.58;;;25.60;2201.60;;;;;;4897250;29;19924;-76
2022/01/17 03:32:15;;;;;;;;;;;25.60;2201.60;;;;;;4881282;29;20116;-75
2022/01/17 03:34:42;;;;;;;79.82;35.45;;;25.60;2201.60;;;;;;4880609;29;20257;-79
2022/01/17 03:37:09;;;;;;;73.95;35.65;;;25.70;2201.60;;;;;;4880137;29;20501;-78
2022/01/17 03:39:34;;;;;;;77.47;36.22;;;25.70;2201.60;;;;;;4880431;29;20135;-75
2022/01/17 03:42:00;;;;;;;;;;;25.90;2201.60;;;;;;4897608;29;20108;-74
2022/01/17 03:44:26;;;;;;;71.38;32.78;;;25.80;2201.60;;;;;;4897490;29;20339;-79
2022/01/17 03:46:51;;;;;;;;;;;25.90;2201.60;;;;;;4897525;29;20436;-76
2022/01/17 03:49:17;;;;;;;73.85;33.60;;;25.80;2201.60;;;;;;4897068;29;19907;-74
2022/01/17 03:51:43;;;;;;;67.63;35.17;;;25.90;2201.60;;;;;;4898426;29;20052;-77
2022/01/17 03:54:09;;;;;;;;;;;25.90;2201.60;;;;;;4901360;29;20536;-78
2022/01/17 03:56:35;;;;;;;79.60;34.72;;;26.00;2201.60;;;;;;4900617;29;19956;-77
2022/01/17 03:59:00;;;;;;;;;;;26.00;2201.60;;;;;;4901572;29;20033;-75
2022/01/17 04:01:26;;;;;;;66.63;34.70;;;26.20;2201.60;;;;;;4900781;29;19964;-78
2022/01/17 04:03:51;;;;;;;;;;;26.40;2201.60;;;;;;4883907;29;20036;-78
2022/01/17 04:06:18;;;;;;;83.40;39.47;;;26.50;2201.60;;;;;;4883717;29;19914;-75
2022/01/17 04:08:44;;;;;;;87.60;40.45;;;51.30;2227.20;;;;;;4883710;29;20605;-75
2022/01/17 04:11:10;;;;;;;;;;;51.30;2227.20;;;;;;4901273;29;20111;-75
2022/01/17 04:13:36;;;;;;;66.22;32.55;;;51.30;2227.20;;;;;;4900440;29;19919;-75
2022/01/17 04:16:02;;;;;;;;;;;51.40;2227.20;;;;;;4901199;29;20024;-77
2022/01/17 04:18:28;;;;;;;67.75;33.83;;;51.60;2227.20;;;;;;4900369;29;20385;-77
2022/01/17 04:20:54;;;;;;;65.30;35.42;;;51.70;2227.20;;;;;;4900785;29;20025;-78
2022/01/17 04:23:20;;;;;;;;;;;51.70;2227.20;;;;;;4900293;29;20043;-75
2022/01/17 04:25:46;;;;;;;69.82;36.63;;;51.90;2227.20;;;;;;4900666;29;19907;-77
2022/01/17 04:28:12;;;;;;;;;;;52.00;2227.20;;;;;;4900764;29;20462;-75
2022/01/17 04:30:39;;;;;;;56.42;27.85;;;52.10;2227.20;;;;;;4900640;29;20372;-76
2022/01/17 04:33:06;;;;;;;74.13;35.40;;;52.10;2227.20;;;;;;4882946;29;20500;-76
2022/01/17 04:35:35;;;;;;;70.50;35.13;;;52.00;2227.20;;;;;;4900098;29;20037;-76
2022/01/17 04:38:18;;;;;;;68.82;35.88;;;52.00;2227.20;;;;;;4900114;29;20052;-77
2022/01/17 04:40:50;;;;;;;72.68;35.22;;;52.00;2227.20;;;;;;4883237;29;20056;-77
2022/01/17 04:43:44;;;;;;;72.10;34.95;;;51.90;2227.20;;;;;;4900318;29;20084;-77
2022/01/17 04:46:08;;;;;;;67.63;35.15;;;51.90;2227.20;;;;;;4899487;29;20488;-76
2022/01/17 04:48:35;;;;;;;77.75;35.28;;;51.90;2227.20;;;;;;4899938;29;20029;-76
2022/01/17 04:51:01;;;;;;;64.95;33.75;;;51.90;2227.20;;;;;;4900083;29;20023;-75
2022/01/17 04:53:27;;;;;;;72.50;33.75;;;51.90;2227.20;;;;;;4882700;29;20113;-76
2022/01/17 04:55:53;;;;;;;70.97;36.95;;;52.00;2227.20;;;;;;4899791;29;20021;-76
2022/01/17 04:58:19;;;;;;;;;;;52.00;2227.20;;;;;;4900112;29;20035;-76
2022/01/17 05:00:49;;;;;;;75.90;34.25;;;76.80;2227.20;;;;;;4899829;29;19918;-77
2022/01/17 05:03:14;;;;;;;81.63;35.47;;;52.00;2227.20;;;;;;4899155;29;20032;-77
2022/01/17 05:05:40;;;;;;;73.72;37.58;;;51.90;2227.20;;;;;;4899419;29;20025;-75
2022/01/17 05:08:06;;;;;;;82.30;35.60;;;51.90;2227.20;;;;;;4899615;29;20040;-76
2022/01/17 05:10:31;;;;;;;;;;;51.90;2227.20;;;;;;4899844;29;20027;-76
2022/01/17 05:12:57;;;;;;;68.32;31.40;;;51.90;2227.20;;;;;;4882736;29;19958;-76
2022/01/17 05:15:34;;;;;;;;;;;52.00;2227.20;;;;;;4882726;29;20040;-75
2022/01/17 05:20:35;;;;;;;66.07;32.35;;;76.80;2227.20;;;;;;4899592;29;20031;-77
2022/01/17 05:23:01;;;;;;;76.78;34.50;;;76.90;2227.20;;;;;;4882359;29;20028;-76
2022/01/17 05:25:27;;;;;;;;;;;77.00;2227.20;;;;;;4900006;29;20028;-77
2022/01/17 05:27:53;;;;;;;73.40;32.92;;;77.00;2227.20;;;;;;4899136;29;19958;-75
2022/01/17 05:30:20;;;;;;;;;;;76.90;2227.20;;;;;;4899968;29;20021;-77
2022/01/17 05:32:46;;;;;;;55.47;25.38;;;77.00;2227.20;;;;;;4899221;29;19915;-76
2022/01/17 05:35:13;;;;;;;69.22;31.63;;;76.80;2227.20;;;;;;4899167;29;20481;-76
2022/01/17 05:37:40;;;;;;;64.72;33.53;;;76.80;2227.20;;;;;;4898685;29;20085;-77
2022/01/17 05:40:08;;;;;;;71.40;32.42;;;76.80;2227.20;;;;;;4897811;29;20045;-76
2022/01/17 05:42:34;;;;;;;62.72;29.15;;;76.80;2227.20;;;;;;4882268;29;20036;-77
2022/01/17 05:45:00;;;;;;;;;;;52.10;2227.20;;;;;;4883484;29;20115;-75
2022/01/17 05:47:26;;;;;;;66.75;31.50;;;52.00;2227.20;;;;;;4885479;29;20320;-75
2022/01/17 05:49:51;;;;;;;;;;;52.10;2227.20;;;;;;4908096;29;20024;-77
2022/01/17 05:52:17;;;;;;;68.32;33.13;;;52.10;2227.20;;;;;;4892105;29;19938;-77
2022/01/17 05:54:43;;;;;;;;;;;52.00;2227.20;;;;;;4906934;29;20123;-77
2022/01/17 05:57:09;;;;;;;55.40;28.23;;;52.00;2227.20;;;;;;4909914;29;19954;-76
2022/01/17 05:59:35;;;;;;;58.85;28.33;;;51.90;2227.20;;;;;;4892440;29;20771;-78
2022/01/17 06:02:00;;;;;;;;;;;51.90;2227.20;;;;;;4909013;29;20077;-75
2022/01/17 06:04:26;;;;;;;56.17;27.23;;;51.90;2227.20;;;;;;4914394;29;20333;-74
2022/01/17 06:06:52;;;;;;;;;;;51.90;2227.20;;;;;;4903673;29;20048;-74
2022/01/17 06:09:18;;;;;;;60.38;29.27;;;52.00;2227.20;;;;;;4889735;29;19919;-75
2022/01/17 06:11:43;;;;;;;;;;;52.00;2227.20;;;;;;4907297;29;20476;-75
2022/01/17 06:14:10;;;;;;;53.88;25.27;;;52.10;2227.20;;;;;;4891595;29;19924;-75
2022/01/17 06:16:36;;;;;;;51.35;26.48;;;52.00;2227.20;;;;;;4907120;29;20028;-75
2022/01/17 06:19:03;;;;;;;58.25;29.40;;;52.00;2227.20;;;;;;4906523;29;20016;-75
2022/01/17 06:21:29;;;;;;;59.33;27.33;;;51.90;2227.20;;;;;;4905950;29;20028;-76
2022/01/17 06:23:55;;;;;;;;;;;51.90;2227.20;;;;;;4908855;29;20107;-74
2022/01/17 06:26:21;;;;;;;53.08;23.52;;;52.00;2227.20;;;;;;4905145;29;20011;-75
2022/01/17 06:28:47;;;;;;;;;;;52.10;2227.20;;;;;;4908325;29;20020;-74
2022/01/17 06:31:13;;;;;;;41.70;19.43;;;76.80;2227.20;;;;;;4888442;29;19973;-75
2022/01/17 06:33:38;;;;;;;;;;;76.90;2227.20;;;;;;4906935;29;20040;-75
2022/01/17 06:36:04;;;;;;;79.28;37.35;;;77.00;2227.20;;;;;;4905952;29;20268;-74
2022/01/17 06:38:30;;;;;;;;;;;76.90;2227.20;;;;;;4904608;29;20079;-75
2022/01/17 06:40:56;;;;;;;43.90;22.17;;;76.90;2227.20;;;;;;4889839;29;20350;-75
2022/01/17 06:43:22;;;;;;;;;;;76.80;2227.20;;;;;;4906534;29;20808;-78
2022/01/17 06:45:48;;;;;;;39.75;20.15;;;52.10;2227.20;;;;;;4894162;29;20383;-77
2022/01/17 06:48:13;;;;;;;;;;;52.10;2227.20;;;;;;4906822;29;20080;-74
2022/01/17 06:50:39;;;;;;;55.38;28.55;;;52.00;2227.20;;;;;;4897108;29;19943;-77
2022/01/17 06:53:05;;;;;;;;;;;52.00;2227.20;;;;;;4900113;29;20040;-77
2022/01/17 06:55:31;;;;;;;60.20;26.88;;;52.00;2227.20;;;;;;4899626;29;19918;-74
2022/01/17 06:57:57;;;;;;;;;;;52.10;2227.20;;;;;;4905728;29;20496;-76
2022/01/17 07:00:23;;;;;;;54.65;28.23;;;52.10;2227.20;;;;;;4905421;29;19915;-75
2022/01/17 07:02:48;;;;;;;;;;;76.80;2227.20;;;;;;4891116;29;20028;-75
2022/01/17 07:05:15;;;;;;;61.47;27.50;;;76.90;2227.20;;;;;;4888878;29;19969;-78
2022/01/17 07:07:40;;;;;;;65.93;33.20;;;76.90;2227.20;;;;;;4904595;29;20064;-76
2022/01/17 07:10:06;;;;;;;53.85;24.65;;;76.90;2227.20;;;;;;4909479;29;20151;-76
2022/01/17 07:12:32;;;;;;;;;;;77.00;2227.20;;;;;;4905993;29;20036;-76
2022/01/17 07:14:58;;;;;;;37.05;17.52;;;77.20;2227.20;;;;;;4902593;29;19922;-75
2022/01/17 07:17:23;;;;;;;;;;;77.20;2227.20;;;;;;4891588;29;20029;-77
2022/01/17 07:19:49;;;;;;;42.45;18.15;;;77.30;2227.20;;;;;;4904988;29;20275;-77
2022/01/17 07:22:14;;;;;;;;;;;77.30;2227.20;;;;;;4907016;29;21383;-78
2022/01/17 07:24:42;;;;;;;39.40;19.00;;;77.40;2227.20;;;;;;4907176;29;19946;-75
2022/01/17 07:27:08;;;;;;;36.42;17.40;;;77.40;2227.20;;;;;;4905628;29;20031;-75
2022/01/17 07:29:34;;;;;;;34.95;18.55;;;77.40;2227.20;;;;;;4907327;29;20105;-76
2022/01/17 07:32:00;;;;;;;;;;;77.50;2227.20;;;;;;4907434;29;20084;-75
2022/01/17 07:34:26;;;;;;;38.53;18.85;;;77.60;2227.20;;;;;;4887005;29;19927;-76
2022/01/17 07:36:55;;;;;;;;;;;77.60;2227.20;;;;;;4906070;29;20020;-77
2022/01/17 07:39:21;;;;;;;34.13;17.08;;;102.40;2227.20;;;;;;4889267;29;19958;-76
2022/01/17 07:41:47;;;;;;;43.28;21.45;;;102.50;2227.20;;;;;;4906616;29;20063;-77
2022/01/17 07:44:19;;;;;;;;;;;102.50;2227.20;;;;;;4909851;29;20043;-77
2022/01/17 07:46:54;;;;;;;39.92;19.77;;;102.50;2227.20;;;;;;4905216;29;19915;-77
2022/01/17 07:49:21;;;;;;;46.97;21.63;;;102.60;2227.20;;;;;;4906861;29;20400;-77
2022/01/17 07:51:56;;;;;;;44.20;24.08;;;102.60;2227.20;;;;;;4906088;29;20027;-77
2022/01/17 07:54:23;;;;;;;48.00;24.52;;;102.70;2227.20;;;;;;4913370;29;20110;-78
2022/01/17 07:56:49;;;;;;;55.35;27.90;;;102.70;2227.20;;;;;;4899034;29;20028;-77
2022/01/17 07:59:15;;;;;;;;;;;102.70;2227.20;;;;;;4899346;29;20036;-75
2022/01/17 08:01:42;;;;;;;47.80;24.08;;;102.80;2227.20;;;;;;4916473;29;19907;-81
2022/01/17 08:04:08;;;;;;;43.08;22.80;;;102.80;2227.20;;;;;;4899576;29;20020;-79
2022/01/17 08:06:38;;;;;;;;;;;102.90;2227.20;;;;;;4908628;29;20375;-79
2022/01/17 08:09:16;;;;;;;37.67;21.42;;;102.90;2227.20;;;;;;4933758;29;19922;-75
2022/01/17 08:11:42;;;;;;;49.20;25.35;;;102.90;2227.20;;;;;;4903774;29;20501;-82
2022/01/17 08:14:08;;;;;;;51.65;23.77;;;103.10;2227.20;;;;;;4897954;29;20096;-83
2022/01/17 08:16:33;;;;;;;;;;;103.10;2227.20;;;;;;4897902;29;20597;-80
2022/01/17 08:18:59;;;;;;;40.55;21.17;;;103.20;2227.20;;;;;;4897975;29;19907;-79
2022/01/17 08:21:25;;;;;;;;;;;103.20;2227.20;;;;;;4880838;29;20036;-80
2022/01/17 08:23:53;;;;;;;40.33;21.33;;;103.30;2227.20;;;;;;4880586;29;19908;-80
2022/01/17 08:26:20;;;;;;;44.10;23.95;;;103.30;2227.20;;;;;;4884376;29;20511;-82
2022/01/17 08:28:46;;;;;;;40.17;21.98;;;128.00;2252.80;;;;;;4886408;29;20047;-82
2022/01/17 08:31:12;;;;;;;40.17;21.58;;;128.00;2252.80;;;;;;4907279;29;20564;-81
2022/01/17 08:33:37;;;;;;;;;;;128.00;2252.80;;;;;;4892382;29;20040;-80
2022/01/17 08:36:04;;;;;;;43.45;22.55;;;128.10;2252.80;;;;;;4898758;29;19907;-77
2022/01/17 08:38:30;;;;;;;46.33;23.48;;;128.20;2252.80;;;;;;4899246;29;20063;-78
2022/01/17 08:40:58;;;;;;;42.60;22.05;;;128.20;2252.80;;;;;;4902783;29;20025;-77
2022/01/17 08:43:25;;;;;;;47.33;25.90;;;128.30;2252.80;;;;;;4901954;29;20095;-82
2022/01/17 08:45:51;;;;;;;44.17;21.63;;;128.50;2252.80;;;;;;4919543;29;20035;-81
2022/01/17 08:48:17;;;;;;;35.65;20.33;;;128.60;2252.80;;;;;;4901807;29;20047;-77
2022/01/17 08:50:43;;;;;;;;;;;128.60;2252.80;;;;;;4917971;29;20040;-78
2022/01/17 08:53:10;;;;;;;37.33;20.42;;;128.80;2252.80;;;;;;4901870;29;19922;-77
2022/01/17 08:55:37;;;;;;;43.45;20.88;;;128.90;2252.80;;;;;;4919053;29;20020;-78
2022/01/17 08:58:04;;;;;;;42.72;23.63;;;153.60;2252.80;;;;;;4901405;29;20036;-76
2022/01/17 09:00:33;;;;;;;43.40;22.13;;;153.70;2252.80;;;;;;4902067;29;20039;-79
2022/01/17 09:03:01;;;;;;;47.22;24.90;;;153.70;2252.80;;;;;;4910779;29;20036;-78
2022/01/17 09:05:31;;;;;;;35.42;20.73;;;153.80;2252.80;;;;;;4917189;29;20049;-75
2022/01/17 09:07:58;;;;;;;42.90;21.77;;;153.90;2252.80;;;;;;4938894;29;20036;-78
2022/01/17 09:10:24;;;;;;;35.60;19.40;;;154.10;2252.80;;;;;;4920082;29;20044;-81
2022/01/17 09:12:51;;;;;;;37.92;19.85;;;154.10;2252.80;;;;;;4918802;29;20036;-76
2022/01/17 09:15:17;;;;;;;37.90;19.17;;;154.20;2252.80;;;;;;4919124;29;20028;-79
2022/01/17 09:17:43;;;;;;;36.05;19.95;;;154.40;2252.80;;;;;;4918890;29;20511;-81
2022/01/17 09:20:10;;;;;;;35.72;19.77;;;154.40;2252.80;;;;;;4902080;29;20035;-76
2022/01/17 09:22:36;;;;;;;54.50;27.85;;;179.20;2252.80;;;;;;4918845;29;20033;-79
2022/01/17 09:25:06;;;;;;;35.15;20.70;;;179.20;2252.80;;;;;;4918361;29;20024;-78
2022/01/17 09:27:36;;;;;;;55.95;27.50;;;179.20;2252.80;;;;;;4901476;29;20032;-81
2022/01/17 09:30:05;;;;;;;41.95;21.48;;;179.30;2252.80;;;;;;4917545;29;20031;-76
2022/01/17 09:32:31;;;;;;;29.35;16.63;;;179.30;2252.80;;;;;;4918395;29;20503;-76
2022/01/17 09:34:56;;;;;;;;;;;179.40;2252.80;;;;;;4919543;29;20032;-76
2022/01/17 09:37:22;;;;;;;28.77;15.60;;;179.40;2252.80;;;;;;4901429;29;19963;-84
2022/01/17 09:39:48;;;;;;;;;;;179.40;2252.80;;;;;;4918750;29;20620;-76
2022/01/17 09:42:14;;;;;;;29.10;16.58;;;179.40;2252.80;;;;;;4918402;29;19911;-84
2022/01/17 09:44:40;;;;;;;30.55;15.40;;;179.40;2252.80;;;;;;4901316;29;20123;-81
2022/01/17 09:47:06;;;;;;;;;;;179.30;2252.80;;;;;;4919020;29;20112;-90
2022/01/17 09:49:37;;;;;;;29.13;15.82;;;179.50;2252.80;;;;;;4917631;29;19915;-75
2022/01/17 09:52:24;;;;;;;29.65;17.15;;;179.40;2252.80;;;;;;4908074;29;20024;-75
2022/01/17 09:54:51;;;;;;;;;;;179.40;2252.80;;;;;;4898382;29;20126;-75
2022/01/17 09:57:17;;;;;;;27.05;13.40;;;179.40;2252.80;;;;;;4918123;29;20363;-86
2022/01/17 09:59:43;;;;;;;31.27;16.40;;;179.30;2252.80;;;;;;4892607;29;20114;-84
2022/01/17 10:02:10;;;;;;;;;;;179.50;2252.80;;;;;;4898113;29;20050;-84
2022/01/17 10:04:37;;;;;;;21.73;10.60;;;179.50;2252.80;;;;;;4882712;29;19911;-82
2022/01/17 10:07:05;;;;;;;27.65;14.93;;;179.50;2252.80;;;;;;4893620;29;20052;-75
2022/01/17 10:09:33;;;;;;;29.45;15.38;;;179.50;2252.80;;;;;;4900424;29;20043;-75
2022/01/17 10:12:08;;;;;;;27.65;15.48;;;179.50;2252.80;;;;;;4917993;29;20048;-77
2022/01/17 10:14:43;;;;;;;20.63;11.73;;;179.60;2252.80;;;;;;4912154;29;20036;-87
2022/01/17 10:17:12;;;;;;;32.40;16.35;;;179.60;2252.80;;;;;;4892970;29;20028;-86
2022/01/17 10:19:39;;;;;;;33.10;18.38;;;179.60;2252.80;;;;;;4909158;29;20060;-85
2022/01/17 10:22:12;;;;;;;26.42;15.02;;;179.70;2252.80;;;;;;4898443;29;20533;-80
2022/01/17 10:25:05;;;;;;;26.48;14.27;;;179.70;2252.80;;;;;;4886902;29;20028;-80
2022/01/17 10:35:35;;;;;;;25.25;13.32;;;179.60;2252.80;;;;;;4917832;29;20047;-81
2022/01/17 10:38:05;;;;;;;22.08;13.13;;;179.60;2252.80;;;;;;4916020;29;20800;-76
2022/01/17 10:40:49;;;;;;;25.27;12.95;;;179.60;2252.80;;;;;;4917135;29;20042;-76
2022/01/17 10:43:21;;;;;;;26.15;13.15;;;179.70;2252.80;;;;;;4898234;29;20111;-81
2022/01/17 10:45:47;;;;;;;24.33;13.52;;;179.70;2252.80;;;;;;4881780;29;20020;-85
2022/01/17 10:48:13;;;;;;;27.02;13.93;;;179.70;2252.80;;;;;;4881793;29;20437;-76
2022/01/17 10:50:41;;;;;;;;;;;179.80;2252.80;;;;;;4907876;29;20487;-83
2022/01/17 10:53:13;;;;;;;25.20;12.75;;;179.80;2252.80;;;;;;4904948;29;19915;-78
2022/01/17 10:55:42;;;;;;;23.75;13.80;;;179.90;2252.80;;;;;;4891058;29;20044;-77
2022/01/17 10:58:10;;;;;;;23.02;13.30;;;179.90;2252.80;;;;;;4908133;29;20039;-83
2022/01/17 11:00:42;;;;;;;33.10;15.52;;;180.00;2252.80;;;;;;4915127;29;20107;-76
2022/01/17 11:03:11;;;;;;;29.77;14.52;;;180.00;2252.80;;;;;;4906860;29;20033;-80
2022/01/17 11:05:42;;;;;;;26.40;14.50;;;179.90;2252.80;;;;;;4892084;29;20032;-76
2022/01/17 11:08:08;;;;;;;27.95;14.57;;;180.00;2252.80;;;;;;4899463;29;20035;-76
2022/01/17 11:10:36;;;;;;;;;;;180.00;2252.80;;;;;;4900370;29;20449;-85
2022/01/17 11:13:05;;;;;;;26.67;14.13;;;179.90;2252.80;;;;;;4899797;29;19911;-75
2022/01/17 11:15:33;;;;;;;23.83;14.10;;;179.90;2252.80;;;;;;4916646;29;20038;-89
2022/01/17 11:18:18;;;;;;;31.00;14.63;;;179.90;2252.80;;;;;;4915968;29;20028;-83
2022/01/17 11:20:45;;;;;;;32.22;15.90;;;179.90;2252.80;;;;;;4899729;29;20420;-82
2022/01/17 11:23:11;;;;;;;85.90;38.47;;;179.90;2252.80;;;;;;4900111;29;20059;-76
2022/01/17 11:25:37;;;;;;;;;;;179.90;2252.80;;;;;;4917047;29;20020;-77
2022/01/17 11:28:05;;;;;;;42.55;20.85;;;179.80;2252.80;;;;;;4916930;29;19914;-80
2022/01/17 11:30:34;;;;;;;51.67;28.25;;;179.80;2252.80;;;;;;4899970;29;20035;-76
2022/01/17 11:33:06;;;;;;;63.13;32.78;;;179.80;2252.80;;;;;;4900092;29;20024;-82
2022/01/17 11:35:34;;;;;;;56.13;31.13;;;179.80;2252.80;;;;;;4915566;29;20043;-79
2022/01/17 11:38:03;;;;;;;63.35;34.08;;;179.80;2252.80;;;;;;4899633;29;20230;-89
2022/01/17 11:40:37;;;;;;;53.20;30.63;;;179.70;2252.80;;;;;;4899982;29;20519;-87
2022/01/17 11:43:19;;;;;;;54.38;29.65;;;179.80;2252.80;;;;;;4916488;29;20016;-83
2022/01/17 11:45:46;;;;;;;49.42;28.30;;;179.80;2252.80;;;;;;4916654;29;20102;-80
2022/01/17 11:48:19;;;;;;;51.85;28.73;;;179.90;2252.80;;;;;;4916605;29;20025;-76
2022/01/17 11:50:48;;;;;;;51.55;27.88;;;180.00;2252.80;;;;;;4899590;29;20087;-77
2022/01/17 11:53:14;;;;;;;45.05;25.83;;;180.00;2252.80;;;;;;4896246;29;20047;-77
2022/01/17 11:55:42;;;;;;;;;;;180.00;2252.80;;;;;;4891374;29;20396;-78
2022/01/17 11:58:27;;;;;;;53.80;27.50;;;180.10;2252.80;;;;;;4901422;29;20352;-90
2022/01/17 12:01:01;;;;;;;52.85;27.55;;;180.10;2252.80;;;;;;4900712;29;20060;-87
2022/01/17 12:03:31;;;;;;;47.15;27.02;;;180.10;2252.80;;;;;;4908323;29;20065;-84
2022/01/17 12:06:02;;;;;;;47.40;26.83;;;204.80;2252.80;;;;;;4906544;29;20021;-86
2022/01/17 12:08:30;;;;;;;65.78;33.42;;;204.90;2252.80;;;;;;4913372;29;20037;-80
2022/01/17 12:11:06;;;;;;;86.60;39.45;;;204.80;2252.80;;;;;;4888062;29;20896;-81
2022/01/17 12:13:44;;;;;;;75.57;37.65;;;204.80;2252.80;;;;;;4910484;29;20037;-76
2022/01/17 12:16:29;;;;;;;55.20;29.83;;;204.80;2252.80;;;;;;4911734;29;20028;-81
2022/01/17 12:19:00;;;;;;;41.13;23.75;;;204.90;2252.80;;;;;;4925560;29;20028;-80
2022/01/17 12:21:35;;;;;;;52.97;25.92;;;205.00;2252.80;;;;;;4917236;29;20040;-78
2022/01/17 12:24:17;;;;;;;44.58;25.55;;;205.00;2252.80;;;;;;4909970;29;20051;-78
2022/01/17 12:26:44;;;;;;;41.38;22.17;;;205.10;2252.80;;;;;;4895683;29;20036;-76
2022/01/17 12:29:10;;;;;;;33.28;18.73;;;205.10;2252.80;;;;;;4896446;29;20032;-87
2022/01/17 12:31:47;;;;;;;30.67;17.48;;;205.10;2252.80;;;;;;4899995;29;20045;-77
2022/01/17 12:34:25;;;;;;;30.80;16.58;;;205.10;2252.80;;;;;;4900901;29;20112;-84
2022/01/17 12:37:00;;;;;;;25.70;14.73;;;205.10;2252.80;;;;;;4889063;29;20039;-82
2022/01/17 12:39:28;;;;;;;26.52;15.15;;;205.20;2252.80;;;;;;4910126;29;20118;-79
2022/01/17 12:42:03;;;;;;;30.48;15.95;;;205.20;2252.80;;;;;;4912126;29;20131;-92
2022/01/17 12:44:31;;;;;;;28.33;16.25;;;205.20;2252.80;;;;;;4920254;29;20020;-80
2022/01/17 12:47:01;;;;;;;31.50;18.15;;;205.20;2252.80;;;;;;4905984;29;20056;-90
2022/01/17 12:49:28;;;;;;;49.28;24.75;;;205.20;2252.80;;;;;;4902907;29;20034;-83
2022/01/17 12:51:56;;;;;;;33.85;18.88;;;205.20;2252.80;;;;;;4920571;29;20035;-78
2022/01/17 12:54:25;;;;;;;28.05;15.18;;;205.20;2252.80;;;;;;4923418;29;20028;-87
2022/01/17 12:56:54;;;;;;;27.23;16.17;;;205.20;2252.80;;;;;;4894681;29;20123;-85